Time;durP1;ratioP1;P1;durP2;ratioP2;P2;SDS_P1;SDS_P2;PMS_P1;PMS_P2;Temp;Humidity;BMP_temperature;BMP_pressure;BME280_temperature;BME280_humidity;BME280_pressure;Samples;Min_cycle;Max_cycle;Signal;HPM_P1;HPM_P2
2022/03/31 00:00:19;;;;;;;4.57;2.22;;;23.40;34.70;;;;;;5031921;28;20413;-62
2022/03/31 00:02:45;;;;;;;3.72;2.53;;;23.40;34.70;;;;;;5031882;28;20855;-63
2022/03/31 00:05:11;;;;;;;4.60;2.30;;;23.40;34.60;;;;;;5031877;28;20387;-63
2022/03/31 00:07:51;;;;;;;4.57;2.40;;;23.40;34.50;;;;;;5031318;28;20383;-63
2022/03/31 00:10:34;;;;;;;3.05;2.20;;;23.40;34.40;;;;;;5031738;28;20395;-63
2022/03/31 00:13:01;;;;;;;3.50;2.40;;;23.40;34.40;;;;;;5031573;28;20379;-63
2022/03/31 00:15:28;;;;;;;4.30;2.08;;;23.40;34.20;;;;;;5031181;28;20391;-63
2022/03/31 00:17:55;;;;;;;3.72;2.20;;;23.30;34.20;;;;;;5031446;28;20403;-62
2022/03/31 00:20:21;;;;;;;3.95;1.90;;;23.30;34.20;;;;;;5031658;28;20387;-63
2022/03/31 00:22:46;;;;;;;4.53;2.10;;;23.40;34.20;;;;;;5031535;28;20393;-63
2022/03/31 00:25:13;;;;;;;3.73;1.90;;;23.30;34.30;;;;;;5031629;28;20855;-63
2022/03/31 00:27:39;;;;;;;3.50;2.15;;;23.30;34.30;;;;;;5031050;28;20747;-63
2022/03/31 00:30:08;;;;;;;3.20;2.03;;;23.30;34.20;;;;;;5030314;28;20391;-62
2022/03/31 00:32:34;;;;;;;4.10;2.30;;;23.40;34.30;;;;;;5031467;28;20406;-62
2022/03/31 00:35:00;;;;;;;3.30;2.05;;;23.40;34.40;;;;;;5031141;28;20395;-63
2022/03/31 00:37:27;;;;;;;3.53;2.00;;;23.40;34.30;;;;;;5030658;28;20423;-62
2022/03/31 00:39:53;;;;;;;3.03;1.95;;;23.30;34.20;;;;;;5031027;28;20943;-62
2022/03/31 00:42:19;;;;;;;3.50;1.90;;;23.40;34.20;;;;;;5031236;28;20482;-63
2022/03/31 00:44:45;;;;;;;3.20;2.03;;;23.30;34.20;;;;;;5031465;28;20474;-63
2022/03/31 00:47:11;;;;;;;3.83;2.00;;;23.30;34.10;;;;;;5031172;28;20502;-62
2022/03/31 00:49:36;;;;;;;4.15;2.45;;;23.40;34.20;;;;;;5030889;28;20907;-63
2022/03/31 00:52:02;;;;;;;4.90;2.28;;;23.30;34.10;;;;;;5031278;28;20395;-63
2022/03/31 00:54:28;;;;;;;3.40;2.10;;;23.30;34.40;;;;;;5033239;28;20463;-63
2022/03/31 00:56:56;;;;;;;3.38;2.17;;;23.30;34.30;;;;;;5035309;28;20422;-63
2022/03/31 00:59:21;;;;;;;3.22;2.17;;;23.30;34.20;;;;;;5035361;28;20406;-63
2022/03/31 01:01:48;;;;;;;3.40;2.13;;;23.30;34.10;;;;;;5034796;28;20391;-63
2022/03/31 01:04:15;;;;;;;3.35;2.00;;;23.30;34.00;;;;;;5035284;28;20387;-63
2022/03/31 01:06:44;;;;;;;4.20;2.28;;;23.30;34.00;;;;;;5035184;28;20419;-63
2022/03/31 01:09:12;;;;;;;3.88;1.92;;;23.30;34.10;;;;;;5035221;28;20395;-62
2022/03/31 01:11:38;;;;;;;4.45;1.98;;;23.30;34.10;;;;;;5034591;28;20403;-63
2022/03/31 01:14:04;;;;;;;3.42;2.15;;;23.30;34.20;;;;;;5035060;28;20729;-63
2022/03/31 01:16:30;;;;;;;3.72;2.15;;;23.30;34.20;;;;;;5034963;28;20425;-62
2022/03/31 01:18:56;;;;;;;3.80;1.90;;;23.30;34.20;;;;;;5034947;28;20391;-63
2022/03/31 01:21:22;;;;;;;2.85;1.88;;;23.30;34.20;;;;;;5034949;28;20437;-63
2022/03/31 01:23:48;;;;;;;3.33;2.30;;;23.30;34.20;;;;;;5016847;28;20379;-62
2022/03/31 01:26:14;;;;;;;4.25;2.08;;;23.30;34.30;;;;;;5034812;28;20828;-63
2022/03/31 01:28:43;;;;;;;3.15;2.00;;;23.30;34.20;;;;;;5034641;28;20423;-63
2022/03/31 01:31:10;;;;;;;3.65;2.08;;;23.20;34.90;;;;;;5034801;28;20391;-62
2022/03/31 01:33:36;;;;;;;3.28;1.85;;;23.20;34.40;;;;;;5034399;28;20729;-63
2022/03/31 01:36:04;;;;;;;3.30;1.63;;;23.30;34.30;;;;;;5034606;28;20419;-62
2022/03/31 01:38:30;;;;;;;4.85;2.33;;;23.30;34.20;;;;;;5034568;28;20899;-63
2022/03/31 01:40:56;;;;;;;3.28;2.00;;;23.30;34.20;;;;;;5034644;28;20402;-62
2022/03/31 01:43:21;;;;;;;3.53;2.10;;;23.30;34.20;;;;;;5034508;28;20395;-62
2022/03/31 01:45:49;;;;;;;3.45;1.90;;;23.30;34.20;;;;;;5033426;28;20483;-63
2022/03/31 01:48:18;;;;;;;3.70;1.80;;;23.30;34.70;;;;;;5033256;28;20387;-63
2022/03/31 01:50:44;;;;;;;4.10;2.10;;;23.20;34.10;;;;;;5032784;28;20395;-63
2022/03/31 01:53:09;;;;;;;2.73;1.63;;;23.30;34.10;;;;;;5032992;28;20398;-62
2022/03/31 01:55:36;;;;;;;3.47;1.77;;;23.20;34.10;;;;;;5031431;28;20395;-63
2022/03/31 01:58:03;;;;;;;3.15;1.85;;;23.20;34.20;;;;;;5032940;28;20478;-62
2022/03/31 02:00:28;;;;;;;3.90;2.22;;;23.20;34.20;;;;;;5031735;28;20395;-63
2022/03/31 02:02:54;;;;;;;3.03;2.10;;;23.20;34.10;;;;;;5031847;28;20449;-62
2022/03/31 02:05:21;;;;;;;3.95;2.00;;;23.20;34.20;;;;;;5032543;28;20902;-62
2022/03/31 02:07:47;;;;;;;3.40;2.05;;;23.20;34.20;;;;;;5032401;28;20783;-63
2022/03/31 02:10:13;;;;;;;3.90;1.98;;;23.20;34.30;;;;;;5033008;28;20403;-63
2022/03/31 02:12:40;;;;;;;3.55;2.00;;;23.20;34.20;;;;;;5032824;28;20846;-63
2022/03/31 02:15:07;;;;;;;3.53;2.38;;;23.20;34.20;;;;;;5032807;28;20398;-63
2022/03/31 02:17:32;;;;;;;3.30;1.97;;;23.20;34.20;;;;;;5032299;28;20422;-62
2022/03/31 02:19:58;;;;;;;3.50;2.17;;;23.20;34.20;;;;;;5031306;28;20399;-63
2022/03/31 02:22:24;;;;;;;3.13;1.93;;;23.20;34.10;;;;;;5032620;28;20387;-63
2022/03/31 02:24:49;;;;;;;3.80;2.10;;;23.20;34.20;;;;;;5032563;28;20883;-62
2022/03/31 02:27:15;;;;;;;3.33;2.27;;;23.20;34.20;;;;;;5032633;28;20395;-62
2022/03/31 02:29:41;;;;;;;2.40;1.83;;;23.20;34.10;;;;;;5032066;28;20426;-63
2022/03/31 02:32:07;;;;;;;3.55;2.20;;;23.20;34.10;;;;;;5032573;28;20395;-63
2022/03/31 02:34:33;;;;;;;2.88;2.10;;;23.20;34.10;;;;;;5032428;28;20426;-63
2022/03/31 02:36:59;;;;;;;2.97;1.65;;;23.20;34.10;;;;;;5032498;28;20937;-62
2022/03/31 02:39:25;;;;;;;3.33;2.00;;;23.20;34.30;;;;;;5032448;28;20415;-62
2022/03/31 02:41:50;;;;;;;2.60;1.87;;;23.10;34.20;;;;;;5032016;28;20862;-63
2022/03/31 02:44:16;;;;;;;3.33;1.92;;;23.20;34.10;;;;;;5032402;28;20383;-62
2022/03/31 02:46:42;;;;;;;3.40;1.85;;;23.10;34.10;;;;;;4969017;28;1818763;-62
2022/03/31 02:49:08;;;;;;;3.05;1.90;;;23.20;34.10;;;;;;5033249;28;20806;-62
2022/03/31 02:51:34;;;;;;;3.50;2.20;;;23.20;34.10;;;;;;5033149;28;20383;-63
2022/03/31 02:56:45;;;;;;;3.40;1.90;;;23.20;34.20;;;;;;5033284;28;20514;-62
2022/03/31 02:59:11;;;;;;;2.90;1.98;;;23.10;34.00;;;;;;5033147;28;20486;-63
2022/03/31 03:01:36;;;;;;;3.53;2.17;;;23.20;34.20;;;;;;5032802;28;20502;-63
2022/03/31 03:04:02;;;;;;;3.30;2.30;;;23.10;34.20;;;;;;5032741;28;20422;-63
2022/03/31 03:06:28;;;;;;;3.47;2.35;;;23.10;34.20;;;;;;5032526;28;20391;-63
2022/03/31 03:08:57;;;;;;;3.80;2.10;;;23.10;34.90;;;;;;5032680;28;20387;-63
2022/03/31 03:11:23;;;;;;;4.30;2.20;;;23.20;35.50;;;;;;5032706;28;20445;-63
2022/03/31 03:13:49;;;;;;;4.30;2.33;;;23.20;35.40;;;;;;5032278;28;20414;-62
2022/03/31 03:16:15;;;;;;;4.95;2.80;;;23.20;36.00;;;;;;5032003;28;20767;-62
2022/03/31 03:18:41;;;;;;;7.67;2.50;;;23.30;38.20;;;;;;5032585;28;20400;-62
2022/03/31 03:21:07;;;;;;;6.95;2.70;;;23.30;37.50;;;;;;5031448;28;20402;-62
2022/03/31 03:23:38;;;;;;;4.65;2.60;;;23.30;38.80;;;;;;5032423;28;20457;-62
2022/03/31 03:26:04;;;;;;;4.50;2.40;;;23.20;36.80;;;;;;5032356;28;20473;-63
2022/03/31 03:28:31;;;;;;;5.95;2.60;;;23.30;38.20;;;;;;5032723;28;20466;-63
2022/03/31 03:30:57;;;;;;;4.68;1.90;;;23.20;37.60;;;;;;5032163;28;20461;-63
2022/03/31 03:33:23;;;;;;;4.35;2.30;;;23.20;37.50;;;;;;5032317;28;20403;-62
2022/03/31 03:35:49;;;;;;;5.13;2.55;;;23.20;36.90;;;;;;5031615;28;20736;-63
2022/03/31 03:38:16;;;;;;;5.15;2.28;;;23.30;36.40;;;;;;5032367;28;20402;-63
2022/03/31 03:40:42;;;;;;;4.22;2.17;;;23.30;38.50;;;;;;5032098;28;20386;-63
2022/03/31 03:43:09;;;;;;;3.90;2.00;;;23.30;38.20;;;;;;5032209;28;20875;-63
2022/03/31 03:45:36;;;;;;;6.20;2.43;;;23.30;36.30;;;;;;5026583;28;20811;-63
2022/03/31 03:48:03;;;;;;;4.60;2.10;;;23.30;37.80;;;;;;5012044;28;20397;-63
2022/03/31 03:50:28;;;;;;;4.82;2.22;;;23.30;37.50;;;;;;5011626;28;20396;-63
2022/03/31 03:52:54;;;;;;;4.03;2.55;;;23.30;38.10;;;;;;5012071;28;20397;-63
2022/03/31 03:55:21;;;;;;;4.90;2.00;;;23.30;37.80;;;;;;5012092;28;20389;-63
2022/03/31 03:57:47;;;;;;;3.73;1.90;;;23.30;37.50;;;;;;5011467;28;20549;-63
2022/03/31 04:00:13;;;;;;;4.30;2.40;;;23.30;37.20;;;;;;5012113;28;20479;-62
2022/03/31 04:02:39;;;;;;;7.28;2.40;;;23.30;37.20;;;;;;5012016;28;20757;-63
2022/03/31 04:05:05;;;;;;;2.90;2.00;;;23.30;37.20;;;;;;5011884;28;20916;-62
2022/03/31 04:07:31;;;;;;;4.33;2.30;;;23.30;37.50;;;;;;5011711;28;20955;-63
2022/03/31 04:09:57;;;;;;;4.10;2.10;;;23.30;36.80;;;;;;5026571;28;20405;-63
2022/03/31 04:12:23;;;;;;;3.15;1.98;;;23.30;36.60;;;;;;5011877;28;20857;-63
2022/03/31 04:14:49;;;;;;;4.83;2.50;;;23.30;36.70;;;;;;5011963;28;20381;-63
2022/03/31 04:17:15;;;;;;;4.28;2.17;;;23.30;36.50;;;;;;5011474;28;20427;-64
2022/03/31 04:19:42;;;;;;;3.40;2.10;;;23.30;36.60;;;;;;5011293;28;20391;-63
2022/03/31 04:22:09;;;;;;;4.97;2.22;;;23.30;35.30;;;;;;5011514;28;20404;-63
2022/03/31 04:24:34;;;;;;;3.55;2.10;;;23.30;35.80;;;;;;5011824;28;20389;-63
2022/03/31 04:27:00;;;;;;;3.55;2.13;;;23.20;36.00;;;;;;5011848;28;20535;-63
2022/03/31 04:29:26;;;;;;;3.37;2.10;;;23.20;36.10;;;;;;5011723;28;20463;-63
2022/03/31 04:31:52;;;;;;;4.03;2.00;;;23.20;35.00;;;;;;5017627;28;20398;-63
2022/03/31 04:34:19;;;;;;;4.03;2.13;;;23.20;35.90;;;;;;5011886;28;20881;-63
2022/03/31 04:36:48;;;;;;;5.07;2.10;;;23.20;36.10;;;;;;5012556;28;20452;-63
2022/03/31 04:39:14;;;;;;;3.95;2.00;;;23.20;36.50;;;;;;5011914;28;20381;-62
2022/03/31 04:41:42;;;;;;;6.07;2.20;;;23.20;36.60;;;;;;5017262;28;20404;-63
2022/03/31 04:44:07;;;;;;;4.60;2.20;;;23.30;35.70;;;;;;5031945;28;20383;-63
2022/03/31 04:46:34;;;;;;;4.60;2.33;;;23.20;36.40;;;;;;5034796;28;20484;-63
2022/03/31 04:49:00;;;;;;;4.80;2.30;;;23.30;36.60;;;;;;5032992;28;20391;-62
2022/03/31 04:51:26;;;;;;;2.70;2.00;;;23.20;36.40;;;;;;5033671;28;20391;-63
2022/03/31 04:53:52;;;;;;;3.97;2.20;;;23.30;36.40;;;;;;5039394;28;20402;-63
2022/03/31 04:56:18;;;;;;;4.30;2.65;;;23.30;36.10;;;;;;5042837;28;20902;-62
2022/03/31 04:58:44;;;;;;;4.45;2.30;;;23.30;35.50;;;;;;5031395;28;20461;-62
2022/03/31 05:01:10;;;;;;;4.72;2.58;;;23.20;35.70;;;;;;5046771;28;20386;-63
2022/03/31 05:03:37;;;;;;;9.15;2.60;;;23.20;35.10;;;;;;5032108;28;20398;-63
2022/03/31 05:06:03;;;;;;;5.95;2.58;;;23.20;35.40;;;;;;5031404;28;20394;-63
2022/03/31 05:08:30;;;;;;;7.88;2.83;;;23.20;35.20;;;;;;5031448;28;20482;-63
2022/03/31 05:10:55;;;;;;;8.40;2.75;;;23.20;36.00;;;;;;5031716;28;20433;-63
2022/03/31 05:13:21;;;;;;;7.63;2.58;;;23.20;35.80;;;;;;5031261;28;20375;-63
2022/03/31 05:15:47;;;;;;;8.25;2.60;;;23.20;35.80;;;;;;5031491;28;20395;-62
2022/03/31 05:18:13;;;;;;;8.30;3.30;;;23.20;35.60;;;;;;5029230;28;20435;-63
2022/03/31 05:20:40;;;;;;;8.20;3.38;;;23.20;35.50;;;;;;5030301;28;20535;-63
2022/03/31 05:23:05;;;;;;;11.13;3.17;;;23.20;35.70;;;;;;5028931;28;20541;-62
2022/03/31 05:25:31;;;;;;;8.55;2.95;;;23.20;35.90;;;;;;5031588;28;20419;-63
2022/03/31 05:28:00;;;;;;;9.90;3.30;;;23.20;36.50;;;;;;5045264;28;20902;-62
2022/03/31 05:30:25;;;;;;;10.13;2.90;;;23.20;36.80;;;;;;5028560;28;20384;-63
2022/03/31 05:32:53;;;;;;;8.63;3.15;;;23.30;36.80;;;;;;5024638;28;20908;-63
2022/03/31 05:35:19;;;;;;;7.70;3.05;;;23.30;36.80;;;;;;5029765;28;20871;-63
2022/03/31 05:37:45;;;;;;;6.43;2.90;;;23.40;37.00;;;;;;5034994;28;20423;-63
2022/03/31 05:40:13;;;;;;;6.85;3.38;;;23.30;36.50;;;;;;5030843;28;20394;-62
2022/03/31 05:42:40;;;;;;;5.18;3.03;;;23.30;36.60;;;;;;5032827;28;20747;-63
2022/03/31 05:45:09;;;;;;;4.90;2.67;;;23.30;36.50;;;;;;5025973;28;20419;-63
2022/03/31 05:47:36;;;;;;;6.13;2.75;;;23.30;36.00;;;;;;5031999;28;20395;-62
2022/03/31 05:50:03;;;;;;;6.38;2.80;;;23.30;36.70;;;;;;5032934;28;20592;-63
2022/03/31 05:52:30;;;;;;;4.28;2.90;;;23.30;35.80;;;;;;5033202;28;20414;-63
2022/03/31 05:54:55;;;;;;;5.57;2.70;;;23.30;36.20;;;;;;5033648;28;20474;-62
2022/03/31 05:57:21;;;;;;;4.53;2.57;;;23.20;35.60;;;;;;5032178;28;20502;-63
2022/03/31 05:59:47;;;;;;;5.30;2.97;;;23.20;35.30;;;;;;5033067;28;20903;-62
2022/03/31 06:02:13;;;;;;;4.18;2.70;;;23.20;36.20;;;;;;5033004;28;20746;-62
2022/03/31 06:04:39;;;;;;;5.70;2.63;;;23.20;36.70;;;;;;5033263;28;20474;-62
2022/03/31 06:07:06;;;;;;;5.15;2.90;;;23.20;35.80;;;;;;5031701;28;20951;-63
2022/03/31 06:09:33;;;;;;;4.30;2.47;;;23.20;35.80;;;;;;5032871;28;20406;-63
2022/03/31 06:11:59;;;;;;;4.72;2.60;;;23.10;35.10;;;;;;5032778;28;20395;-62
2022/03/31 06:14:24;;;;;;;4.30;2.50;;;23.10;35.30;;;;;;5033648;28;20383;-61
2022/03/31 06:16:51;;;;;;;4.40;2.60;;;23.10;35.30;;;;;;5032737;28;20427;-61
2022/03/31 06:19:17;;;;;;;4.93;2.80;;;23.10;36.00;;;;;;5032730;28;20388;-62
2022/03/31 06:21:43;;;;;;;4.60;2.23;;;23.10;36.30;;;;;;5032558;28;20395;-62
2022/03/31 06:24:09;;;;;;;4.53;2.60;;;23.10;36.00;;;;;;5032588;28;20744;-62
2022/03/31 06:26:35;;;;;;;6.32;2.75;;;23.10;35.40;;;;;;5048519;28;20435;-62
2022/03/31 06:29:01;;;;;;;5.83;2.70;;;23.00;35.80;;;;;;5033314;28;20406;-62
2022/03/31 06:31:27;;;;;;;5.53;2.40;;;23.00;36.50;;;;;;5033590;28;20391;-61
2022/03/31 06:33:53;;;;;;;5.78;2.88;;;23.00;36.70;;;;;;5032643;28;20398;-62
2022/03/31 06:36:19;;;;;;;5.10;2.65;;;23.00;35.70;;;;;;5033176;28;20445;-62
2022/03/31 06:38:46;;;;;;;3.63;2.78;;;23.00;36.40;;;;;;5032435;28;20469;-63
2022/03/31 06:41:15;;;;;;;5.65;2.40;;;23.00;36.00;;;;;;5032104;28;20399;-63
2022/03/31 06:43:44;;;;;;;4.38;2.55;;;22.90;35.80;;;;;;5031759;28;20491;-63
2022/03/31 06:46:11;;;;;;;4.43;2.57;;;22.90;36.10;;;;;;5029053;28;20465;-63
2022/03/31 06:48:38;;;;;;;5.00;2.67;;;22.90;36.40;;;;;;5032265;28;20401;-63
2022/03/31 06:51:05;;;;;;;3.83;2.40;;;22.90;36.20;;;;;;5030602;28;20381;-62
2022/03/31 06:53:31;;;;;;;4.85;2.40;;;22.90;36.40;;;;;;5028467;28;20391;-62
2022/03/31 06:55:57;;;;;;;4.40;2.55;;;22.90;36.50;;;;;;5013260;28;20470;-62
2022/03/31 06:58:27;;;;;;;4.10;2.50;;;22.90;36.00;;;;;;5031342;28;20395;-63
2022/03/31 07:00:53;;;;;;;4.90;2.28;;;22.90;36.10;;;;;;5013827;28;20394;-63
2022/03/31 07:03:18;;;;;;;3.80;2.53;;;22.90;35.80;;;;;;5031306;28;20399;-62
2022/03/31 07:05:44;;;;;;;3.60;2.22;;;22.90;35.60;;;;;;5031470;28;20433;-62
2022/03/31 07:08:10;;;;;;;5.10;2.70;;;22.90;35.80;;;;;;5030518;28;20453;-63
2022/03/31 07:10:36;;;;;;;3.88;2.38;;;22.90;35.90;;;;;;5029824;28;20482;-63
2022/03/31 07:13:01;;;;;;;5.57;2.80;;;22.90;36.30;;;;;;5030971;28;20406;-62
2022/03/31 07:15:28;;;;;;;5.27;2.57;;;22.90;36.60;;;;;;5032525;28;20879;-62
2022/03/31 07:17:59;;;;;;;5.10;2.83;;;22.90;36.20;;;;;;5031852;28;20473;-62
2022/03/31 07:20:24;;;;;;;6.63;3.60;;;22.90;36.50;;;;;;5032832;28;20470;-62
2022/03/31 07:22:50;;;;;;;6.65;3.65;;;23.00;37.10;;;;;;5032202;28;20483;-64
2022/03/31 07:25:17;;;;;;;5.33;2.87;;;23.00;37.40;;;;;;5032409;28;20453;-64
2022/03/31 07:27:44;;;;;;;5.93;3.05;;;23.00;37.60;;;;;;5031585;28;20434;-62
2022/03/31 07:30:13;;;;;;;4.38;2.97;;;23.00;38.10;;;;;;5031399;28;20474;-62
2022/03/31 07:33:03;;;;;;;5.47;3.13;;;22.90;37.70;;;;;;5032192;28;20383;-64
2022/03/31 07:35:31;;;;;;;4.73;3.00;;;22.90;37.40;;;;;;5030924;28;20398;-62
2022/03/31 07:37:57;;;;;;;4.00;3.17;;;22.90;37.60;;;;;;5033219;28;20418;-64
2022/03/31 07:40:25;;;;;;;4.93;3.20;;;22.90;36.60;;;;;;5032025;28;20387;-64
2022/03/31 07:42:52;;;;;;;5.10;3.60;;;22.80;36.40;;;;;;5032323;28;20405;-64
2022/03/31 07:45:19;;;;;;;4.78;3.25;;;22.90;36.30;;;;;;5031847;28;20399;-65
2022/03/31 07:47:45;;;;;;;4.00;2.95;;;22.80;36.10;;;;;;5030281;28;20394;-64
2022/03/31 07:50:14;;;;;;;4.40;2.90;;;22.80;36.10;;;;;;5045458;28;20403;-61
2022/03/31 07:52:41;;;;;;;4.25;3.10;;;22.80;36.10;;;;;;5046968;28;20423;-62
2022/03/31 07:55:08;;;;;;;4.40;2.70;;;22.80;36.20;;;;;;5046855;28;20903;-62
2022/03/31 07:57:34;;;;;;;4.75;2.90;;;22.80;36.50;;;;;;5030213;28;20905;-63
2022/03/31 08:00:00;;;;;;;5.13;3.17;;;22.80;36.40;;;;;;5028959;28;20426;-62
2022/03/31 08:02:26;;;;;;;3.83;2.87;;;22.70;36.60;;;;;;5029945;28;20446;-62
2022/03/31 08:04:55;;;;;;;6.53;3.92;;;22.70;36.30;;;;;;5030138;28;20395;-62
2022/03/31 08:07:21;;;;;;;5.65;3.40;;;22.70;36.60;;;;;;5027512;28;20399;-62
2022/03/31 08:09:47;;;;;;;5.65;3.85;;;22.70;36.50;;;;;;5030091;28;20389;-63
2022/03/31 08:12:20;;;;;;;6.43;3.90;;;22.70;36.30;;;;;;5029565;28;20425;-63
2022/03/31 08:14:46;;;;;;;5.95;3.63;;;22.80;36.10;;;;;;5045740;28;21121;-63
2022/03/31 08:17:11;;;;;;;5.65;4.03;;;22.80;36.40;;;;;;5030152;28;20516;-63
2022/03/31 08:19:37;;;;;;;6.33;3.73;;;22.70;36.30;;;;;;5028968;28;20399;-63
2022/03/31 08:22:03;;;;;;;5.47;3.50;;;22.70;36.40;;;;;;5030169;28;20752;-62
2022/03/31 08:24:34;;;;;;;5.80;3.83;;;22.70;36.40;;;;;;5030204;28;20395;-63
2022/03/31 08:26:59;;;;;;;6.10;3.40;;;22.70;36.00;;;;;;5029257;28;20379;-63
2022/03/31 08:29:28;;;;;;;4.87;3.40;;;22.80;36.70;;;;;;5030152;28;20418;-63
2022/03/31 08:31:55;;;;;;;4.38;3.20;;;22.80;36.80;;;;;;5012313;28;20399;-62
2022/03/31 08:34:21;;;;;;;4.60;3.15;;;22.80;36.40;;;;;;5027717;28;20670;-63
2022/03/31 08:36:47;;;;;;;4.37;2.90;;;22.70;36.90;;;;;;5030108;28;20489;-63
2022/03/31 08:39:12;;;;;;;3.70;2.90;;;22.70;36.50;;;;;;5029467;28;20748;-62
2022/03/31 08:41:38;;;;;;;4.20;3.00;;;22.70;36.40;;;;;;5029965;28;20746;-63
2022/03/31 08:44:05;;;;;;;5.07;3.35;;;22.60;36.10;;;;;;5028454;28;20399;-62
2022/03/31 08:46:35;;;;;;;3.70;2.90;;;22.70;36.10;;;;;;5031517;28;20410;-63
2022/03/31 08:49:01;;;;;;;3.92;2.90;;;22.60;36.00;;;;;;5014540;28;20407;-62
2022/03/31 08:51:29;;;;;;;4.88;2.90;;;22.60;36.00;;;;;;5029049;28;20448;-63
2022/03/31 08:53:55;;;;;;;3.90;2.78;;;22.60;36.20;;;;;;5030810;28;20395;-63
2022/03/31 08:56:21;;;;;;;4.68;2.70;;;22.60;36.40;;;;;;5046091;28;20422;-63
2022/03/31 08:58:47;;;;;;;4.32;2.78;;;22.60;36.40;;;;;;5031448;28;20387;-63
2022/03/31 09:01:16;;;;;;;4.75;2.90;;;22.60;36.50;;;;;;5031403;28;20776;-63
2022/03/31 09:03:43;;;;;;;5.60;2.72;;;22.70;36.70;;;;;;5045785;28;20743;-63
2022/03/31 09:06:20;;;;;;;4.78;2.90;;;22.60;37.10;;;;;;5030422;28;20819;-63
2022/03/31 09:09:00;;;;;;;4.53;3.05;;;22.70;37.70;;;;;;5030586;28;20477;-63
2022/03/31 09:11:34;;;;;;;4.28;2.60;;;22.70;37.40;;;;;;5045773;28;20534;-63
2022/03/31 09:14:02;;;;;;;4.45;2.60;;;22.80;37.20;;;;;;5030507;28;20383;-63
2022/03/31 09:16:36;;;;;;;5.05;2.70;;;22.80;37.20;;;;;;5033998;28;20399;-62
2022/03/31 09:19:09;;;;;;;5.30;2.53;;;22.80;37.50;;;;;;5034611;28;20395;-63
2022/03/31 09:21:57;;;;;;;5.82;2.83;;;22.80;37.90;;;;;;5032559;28;20391;-63
2022/03/31 09:24:26;;;;;;;5.00;2.47;;;22.80;38.50;;;;;;5049720;28;20410;-63
2022/03/31 09:26:52;;;;;;;6.88;2.88;;;22.90;38.30;;;;;;5033322;28;20387;-64
2022/03/31 09:29:19;;;;;;;4.38;2.50;;;22.90;38.20;;;;;;5034450;28;20481;-63
2022/03/31 09:31:46;;;;;;;4.20;2.70;;;22.90;38.20;;;;;;5034105;28;20418;-63
2022/03/31 09:34:13;;;;;;;3.80;2.60;;;22.90;38.00;;;;;;5034013;28;20481;-63
2022/03/31 09:36:43;;;;;;;4.55;2.40;;;22.90;38.00;;;;;;5034088;28;20443;-63
2022/03/31 09:39:13;;;;;;;3.40;2.60;;;22.90;37.70;;;;;;5033221;28;20449;-63
2022/03/31 09:41:41;;;;;;;3.22;2.50;;;22.90;37.80;;;;;;5032603;28;20395;-63
2022/03/31 09:44:28;;;;;;;4.28;2.53;;;22.90;37.80;;;;;;5033800;28;20502;-63
2022/03/31 09:46:54;;;;;;;3.15;2.20;;;22.90;37.60;;;;;;5033706;28;20411;-63
2022/03/31 09:49:27;;;;;;;3.50;2.10;;;22.90;37.70;;;;;;5034442;28;20395;-63
2022/03/31 09:51:57;;;;;;;2.72;2.15;;;22.90;36.90;;;;;;5032583;28;20449;-64
2022/03/31 09:54:26;;;;;;;4.53;2.30;;;22.90;37.10;;;;;;5033162;28;20740;-63
2022/03/31 09:56:52;;;;;;;4.20;2.58;;;22.80;36.60;;;;;;5030942;28;20414;-64
2022/03/31 09:59:19;;;;;;;4.25;2.30;;;22.80;36.80;;;;;;5031908;28;20400;-63
2022/03/31 10:01:45;;;;;;;3.00;2.17;;;22.80;36.30;;;;;;5032017;28;20891;-62
2022/03/31 10:04:13;;;;;;;4.68;2.45;;;22.80;36.30;;;;;;5031492;28;20962;-63
2022/03/31 10:06:41;;;;;;;3.65;2.10;;;22.70;36.10;;;;;;5032245;28;20406;-63
2022/03/31 10:09:09;;;;;;;2.63;2.05;;;22.70;36.20;;;;;;5030271;28;20452;-63
2022/03/31 10:11:41;;;;;;;2.70;2.20;;;22.70;36.10;;;;;;5032194;28;20474;-63
2022/03/31 10:14:25;;;;;;;2.90;2.10;;;22.60;36.20;;;;;;5030389;28;20416;-63
2022/03/31 10:16:58;;;;;;;3.63;2.30;;;22.60;36.20;;;;;;5028617;28;20423;-62
2022/03/31 10:19:35;;;;;;;2.80;2.25;;;22.60;36.10;;;;;;5032197;28;20502;-63
2022/03/31 10:25:11;;;;;;;3.50;2.25;;;22.60;36.20;;;;;;5017577;28;20375;-63
2022/03/31 10:27:40;;;;;;;2.97;2.30;;;22.60;36.20;;;;;;5013995;28;20399;-63
2022/03/31 10:30:14;;;;;;;4.13;2.10;;;22.60;36.20;;;;;;5030155;28;20423;-63
2022/03/31 10:33:09;;;;;;;3.13;2.27;;;22.50;36.30;;;;;;5015022;28;20891;-63
2022/03/31 10:35:38;;;;;;;4.35;2.53;;;22.50;36.20;;;;;;4995473;28;20399;-63
2022/03/31 10:38:15;;;;;;;3.08;2.47;;;22.50;36.20;;;;;;5031800;28;20505;-63
2022/03/31 10:40:43;;;;;;;4.25;2.20;;;22.50;36.30;;;;;;5032374;28;20393;-63
2022/03/31 10:43:22;;;;;;;2.70;2.03;;;22.50;36.30;;;;;;5033310;28;20881;-63
2022/03/31 10:45:48;;;;;;;3.60;2.10;;;22.50;36.50;;;;;;5032978;28;20410;-63
2022/03/31 10:48:19;;;;;;;3.45;2.13;;;22.50;36.40;;;;;;5032130;28;20810;-63
2022/03/31 10:50:46;;;;;;;4.18;2.33;;;22.60;36.60;;;;;;5047757;28;20482;-63
2022/03/31 10:53:13;;;;;;;4.32;2.20;;;22.60;36.60;;;;;;5031717;28;20419;-62
2022/03/31 10:55:50;;;;;;;3.47;2.13;;;22.60;36.70;;;;;;5032756;28;20404;-62
2022/03/31 10:58:21;;;;;;;3.72;2.60;;;22.60;36.70;;;;;;5032326;28;20460;-62
2022/03/31 11:00:49;;;;;;;3.95;2.63;;;22.60;36.50;;;;;;5032247;28;20859;-63
2022/03/31 11:03:19;;;;;;;2.95;2.50;;;22.60;36.90;;;;;;5029909;28;20414;-63
2022/03/31 11:05:45;;;;;;;5.10;2.70;;;22.60;36.00;;;;;;5031738;28;20894;-64
2022/03/31 11:08:16;;;;;;;3.73;2.60;;;22.60;36.70;;;;;;5031266;28;20391;-63
2022/03/31 11:10:45;;;;;;;3.90;2.40;;;22.60;36.60;;;;;;5031820;28;20490;-63
2022/03/31 11:13:13;;;;;;;3.97;2.58;;;22.60;36.70;;;;;;5031990;28;20399;-62
2022/03/31 11:15:39;;;;;;;3.23;2.40;;;22.60;37.00;;;;;;5032454;28;20470;-63
2022/03/31 11:18:05;;;;;;;3.20;2.38;;;22.60;36.70;;;;;;5031686;28;20468;-63
2022/03/31 11:20:31;;;;;;;3.90;2.40;;;22.60;36.50;;;;;;5031202;28;20394;-63
2022/03/31 11:23:06;;;;;;;4.10;2.35;;;22.60;36.50;;;;;;5032004;28;20392;-63
2022/03/31 11:25:33;;;;;;;3.78;2.40;;;22.60;36.70;;;;;;5032088;28;20398;-63
2022/03/31 11:28:12;;;;;;;2.80;2.08;;;22.60;37.20;;;;;;5031568;28;20517;-63
2022/03/31 11:30:39;;;;;;;4.00;2.08;;;22.60;36.50;;;;;;5031436;28;20395;-63
2022/03/31 11:33:09;;;;;;;6.45;2.50;;;22.60;36.40;;;;;;5031519;28;20739;-63
2022/03/31 11:35:35;;;;;;;3.83;2.27;;;22.70;37.10;;;;;;5031844;28;20540;-64
2022/03/31 11:38:03;;;;;;;3.85;2.20;;;22.60;36.90;;;;;;5030967;28;20807;-63
2022/03/31 11:40:36;;;;;;;3.80;2.30;;;22.60;36.10;;;;;;5031770;28;20437;-63
2022/03/31 11:43:05;;;;;;;3.63;2.10;;;22.60;36.70;;;;;;5031771;28;20402;-64
2022/03/31 11:45:37;;;;;;;3.70;2.20;;;22.60;36.20;;;;;;5031262;28;20453;-62
2022/03/31 11:48:06;;;;;;;3.13;2.10;;;22.60;37.30;;;;;;5031302;28;20434;-63
2022/03/31 11:50:34;;;;;;;2.35;2.00;;;22.60;36.70;;;;;;5031575;28;20386;-62
2022/03/31 11:53:01;;;;;;;2.55;1.95;;;22.70;37.10;;;;;;5031539;28;20391;-62
2022/03/31 11:55:29;;;;;;;2.70;2.10;;;22.70;36.90;;;;;;5030759;28;20478;-62
2022/03/31 11:57:55;;;;;;;2.50;2.00;;;22.60;36.60;;;;;;5030040;28;20419;-63
2022/03/31 12:00:22;;;;;;;2.80;1.92;;;22.70;36.20;;;;;;5030204;28;20403;-62
2022/03/31 12:03:17;;;;;;;2.67;2.05;;;22.70;36.50;;;;;;5029890;28;20883;-63
2022/03/31 12:05:56;;;;;;;2.30;1.88;;;22.70;36.60;;;;;;5028151;28;20847;-62
2022/03/31 12:08:22;;;;;;;2.77;1.80;;;22.70;36.40;;;;;;5027962;28;20788;-63
2022/03/31 12:10:51;;;;;;;2.47;1.88;;;22.70;36.60;;;;;;5029148;28;20392;-62
2022/03/31 12:13:18;;;;;;;3.13;2.30;;;22.70;36.80;;;;;;5029673;28;20395;-62
2022/03/31 12:15:43;;;;;;;3.70;2.10;;;22.70;36.40;;;;;;5030189;28;20394;-63
2022/03/31 12:18:13;;;;;;;2.53;1.90;;;22.70;36.40;;;;;;5028616;28;20439;-62
2022/03/31 12:20:39;;;;;;;3.58;1.92;;;22.70;36.50;;;;;;5029899;28;20410;-63
2022/03/31 12:23:22;;;;;;;2.35;1.95;;;22.70;36.60;;;;;;5029688;28;20401;-62
2022/03/31 12:25:49;;;;;;;3.08;1.80;;;22.70;36.70;;;;;;5028630;28;20383;-63
2022/03/31 12:28:20;;;;;;;2.90;2.03;;;22.70;36.70;;;;;;5030171;28;20387;-63
2022/03/31 12:30:51;;;;;;;2.57;1.80;;;22.70;36.60;;;;;;5030912;28;20411;-63
2022/03/31 12:33:24;;;;;;;2.00;1.70;;;22.70;36.30;;;;;;5030652;28;20498;-62
2022/03/31 12:36:02;;;;;;;3.55;1.90;;;22.70;36.40;;;;;;5031254;28;20398;-63
2022/03/31 12:38:45;;;;;;;2.90;1.95;;;22.70;36.80;;;;;;5030492;28;20787;-63
2022/03/31 12:41:22;;;;;;;2.60;1.88;;;22.70;36.20;;;;;;5030916;28;20372;-63
2022/03/31 12:44:02;;;;;;;3.55;2.00;;;22.70;36.00;;;;;;5031213;28;20398;-63
2022/03/31 12:46:31;;;;;;;3.00;1.60;;;22.70;36.20;;;;;;5030429;28;20420;-63
2022/03/31 12:49:09;;;;;;;3.75;1.90;;;22.70;36.10;;;;;;5032363;28;20887;-63
2022/03/31 12:51:53;;;;;;;2.47;1.80;;;22.60;36.10;;;;;;5035296;28;20406;-63
2022/03/31 12:54:35;;;;;;;2.40;1.70;;;22.60;36.00;;;;;;5034474;28;20389;-62